createdAt,value
2022-12-06T00:01:18.114Z,13.37
2022-12-06T00:03:46.965Z,12.40
2022-12-06T00:06:16.859Z,11.47
2022-12-06T00:08:44.533Z,15.83
2022-12-06T00:11:14.265Z,17.60
2022-12-06T00:13:41.632Z,14.67
2022-12-06T00:16:11.790Z,12.80
2022-12-06T00:18:39.862Z,11.80
2022-12-06T00:21:14.145Z,12.23
2022-12-06T00:23:46.834Z,11.67
2022-12-06T00:26:14.584Z,13.27
2022-12-06T00:28:41.643Z,14.73
2022-12-06T00:31:15.817Z,9.23
2022-12-06T00:33:42.846Z,9.27
2022-12-06T00:36:19.187Z,8.40
2022-12-06T00:38:46.651Z,5.67
2022-12-06T00:41:15.764Z,5.83
2022-12-06T00:43:43.307Z,6.53
2022-12-06T00:46:13.352Z,4.40
2022-12-06T00:48:40.134Z,4.53
2022-12-06T00:51:06.802Z,2.70
2022-12-06T00:53:33.513Z,3.80
2022-12-06T00:56:00.220Z,4.47
2022-12-06T00:58:27.082Z,4.03
2022-12-06T01:00:53.879Z,3.90
2022-12-06T01:03:21.696Z,4.07
2022-12-06T01:05:50.370Z,4.53
2022-12-06T01:08:18.563Z,6.10
2022-12-06T01:10:53.520Z,4.73
2022-12-06T01:13:20.973Z,5.50
2022-12-06T01:15:47.768Z,8.23
2022-12-06T01:18:14.631Z,5.97
2022-12-06T01:20:41.503Z,5.00
2022-12-06T01:23:08.256Z,8.20
2022-12-06T01:25:36.374Z,5.53
2022-12-06T01:28:03.775Z,5.37
2022-12-06T01:30:30.747Z,5.87
2022-12-06T01:32:57.573Z,6.53
2022-12-06T01:35:24.265Z,7.83
2022-12-06T01:37:50.920Z,9.20
2022-12-06T01:40:17.693Z,6.17
2022-12-06T01:42:44.502Z,7.07
2022-12-06T01:45:11.471Z,10.57
2022-12-06T01:47:42.132Z,10.03
2022-12-06T01:50:27.947Z,9.03
2022-12-06T01:52:57.602Z,7.43
2022-12-06T01:55:28.370Z,9.07
2022-12-06T01:57:58.549Z,7.90
2022-12-06T02:00:25.363Z,9.80
2022-12-06T02:02:53.839Z,8.23
2022-12-06T02:05:20.653Z,7.60
2022-12-06T02:07:48.203Z,8.23
2022-12-06T02:10:14.949Z,8.50
2022-12-06T02:12:41.626Z,6.63
2022-12-06T02:15:09.086Z,6.67
2022-12-06T02:17:54.168Z,4.90
2022-12-06T02:20:36.261Z,8.37
2022-12-06T02:23:44.359Z,8.07
2022-12-06T02:26:30.664Z,6.70
2022-12-06T02:29:17.540Z,5.67
2022-12-06T02:31:51.917Z,8.73
2022-12-06T02:34:30.667Z,6.50
2022-12-06T02:37:10.261Z,5.37
2022-12-06T02:39:42.774Z,5.17
2022-12-06T02:42:17.333Z,6.10
2022-12-06T02:44:50.274Z,5.80
2022-12-06T02:47:20.732Z,4.20
2022-12-06T02:49:54.716Z,7.70
2022-12-06T02:52:25.540Z,4.43
2022-12-06T02:54:55.436Z,6.77
2022-12-06T02:57:34.929Z,3.80
2022-12-06T03:00:02.212Z,2.83
2022-12-06T03:02:29.067Z,7.43
2022-12-06T03:05:20.373Z,3.90
2022-12-06T03:07:49.368Z,2.23
2022-12-06T03:10:37.783Z,2.17
2022-12-06T03:13:14.589Z,2.20
2022-12-06T03:16:11.104Z,4.10
2022-12-06T03:18:57.949Z,2.17
2022-12-06T03:21:37.406Z,2.67
2022-12-06T03:24:10.219Z,3.70
2022-12-06T03:26:39.228Z,1.90
2022-12-06T03:29:09.379Z,1.70
2022-12-06T03:31:39.889Z,2.73
2022-12-06T03:34:19.358Z,3.00
2022-12-06T03:36:48.590Z,3.20
2022-12-06T03:39:24.521Z,2.83
2022-12-06T03:41:58.801Z,4.43
2022-12-06T03:44:26.476Z,5.63
2022-12-06T03:46:59.197Z,4.37
2022-12-06T03:49:54.340Z,7.27
2022-12-06T03:52:23.584Z,6.77
2022-12-06T03:54:50.332Z,6.80
2022-12-06T03:57:17.093Z,9.57
2022-12-06T03:59:43.758Z,13.47
2022-12-06T04:02:10.559Z,7.33
2022-12-06T04:04:37.265Z,10.20
2022-12-06T04:07:04.018Z,9.43
2022-12-06T04:10:09.073Z,10.57
2022-12-06T04:12:54.318Z,9.77
2022-12-06T04:15:23.152Z,12.53
2022-12-06T04:18:08.751Z,11.03
2022-12-06T04:20:58.402Z,10.77
2022-12-06T04:23:26.026Z,9.27
2022-12-06T04:25:52.701Z,9.50
2022-12-06T04:28:37.919Z,9.17
2022-12-06T04:31:23.049Z,12.77
2022-12-06T04:34:09.761Z,16.63
2022-12-06T04:36:57.025Z,12.50
2022-12-06T04:39:24.140Z,16.30
2022-12-06T04:42:09.800Z,13.03
2022-12-06T04:44:36.740Z,15.67
2022-12-06T04:47:04.147Z,12.63
2022-12-06T04:49:30.834Z,14.33
2022-12-06T04:51:57.588Z,13.03
2022-12-06T04:54:24.776Z,12.97
2022-12-06T04:56:51.674Z,14.73
2022-12-06T04:59:18.486Z,14.07
2022-12-06T05:01:45.369Z,10.40
2022-12-06T05:04:12.149Z,12.63
2022-12-06T05:06:38.937Z,9.30
2022-12-06T05:09:05.960Z,14.50
2022-12-06T05:11:33.072Z,13.03
2022-12-06T05:14:00.653Z,12.97
2022-12-06T05:16:27.469Z,11.07
2022-12-06T05:18:54.300Z,11.37
2022-12-06T05:21:23.506Z,15.23
2022-12-06T05:23:52.882Z,10.73
2022-12-06T05:26:20.929Z,10.60
2022-12-06T05:28:48.189Z,14.70
2022-12-06T05:31:16.602Z,13.00
2022-12-06T05:33:43.471Z,17.60
2022-12-06T05:36:12.920Z,13.00
2022-12-06T05:38:39.977Z,10.83
2022-12-06T05:41:08.544Z,12.80
2022-12-06T05:43:35.828Z,13.03
2022-12-06T05:46:02.877Z,14.17
2022-12-06T05:48:29.671Z,13.60
2022-12-06T05:51:05.983Z,13.00
2022-12-06T05:53:36.020Z,11.03
2022-12-06T05:56:12.110Z,13.47
2022-12-06T05:58:39.496Z,16.43
2022-12-06T06:01:07.802Z,16.07
2022-12-06T06:03:35.176Z,20.27
2022-12-06T06:06:02.626Z,16.43
2022-12-06T06:08:30.213Z,15.93
2022-12-06T06:10:57.955Z,15.27
2022-12-06T06:13:24.701Z,15.17
2022-12-06T06:15:51.556Z,13.10
2022-12-06T06:18:19.382Z,14.00
2022-12-06T06:20:54.850Z,16.93
2022-12-06T06:23:21.786Z,16.70
2022-12-06T06:25:48.742Z,16.00
2022-12-06T06:28:16.766Z,17.50
2022-12-06T06:30:43.913Z,17.77
2022-12-06T06:33:10.694Z,15.40
2022-12-06T06:35:38.510Z,16.57
2022-12-06T06:38:05.267Z,15.67
2022-12-06T06:40:32.302Z,15.50
2022-12-06T06:43:17.901Z,14.97
2022-12-06T06:45:57.089Z,17.83
2022-12-06T06:48:25.469Z,20.43
2022-12-06T06:50:57.253Z,17.30
2022-12-06T06:53:26.445Z,15.93
2022-12-06T06:55:54.160Z,16.30
2022-12-06T06:58:20.968Z,16.93
2022-12-06T07:01:03.052Z,19.67
2022-12-06T07:03:30.322Z,18.57
2022-12-06T07:05:59.661Z,20.53
2022-12-06T07:08:28.153Z,19.53
2022-12-06T07:10:55.086Z,16.67
2022-12-06T07:13:24.492Z,17.20
2022-12-06T07:15:51.631Z,24.43
2022-12-06T07:18:19.314Z,21.97
2022-12-06T07:20:47.927Z,21.83
2022-12-06T07:23:15.701Z,19.07
2022-12-06T07:25:42.458Z,22.63
2022-12-06T07:28:09.441Z,23.20
2022-12-06T07:30:36.256Z,21.07
2022-12-06T07:33:03.036Z,26.77
2022-12-06T07:35:48.826Z,18.13
2022-12-06T07:38:16.919Z,24.13
2022-12-06T07:43:49.091Z,24.87
2022-12-06T07:46:19.097Z,23.50
2022-12-06T07:48:45.855Z,23.30
2022-12-06T07:51:12.535Z,29.27
2022-12-06T07:53:39.272Z,22.97
2022-12-06T07:56:07.508Z,21.53
2022-12-06T07:58:34.399Z,22.87
2022-12-06T08:01:03.237Z,21.93
2022-12-06T08:03:30.190Z,22.37
2022-12-06T08:05:56.992Z,23.07
2022-12-06T08:08:28.551Z,24.70
2022-12-06T08:10:59.354Z,25.70
2022-12-06T08:13:26.380Z,20.83
2022-12-06T08:15:53.164Z,23.70
2022-12-06T08:18:19.928Z,22.00
2022-12-06T08:20:46.901Z,23.73
2022-12-06T08:23:14.675Z,17.97
2022-12-06T08:25:41.408Z,26.53
2022-12-06T08:28:08.084Z,20.73
2022-12-06T08:30:34.971Z,18.17
2022-12-06T08:33:01.764Z,15.27
2022-12-06T08:35:28.552Z,16.57
2022-12-06T08:37:55.830Z,13.77
2022-12-06T08:40:22.878Z,13.17
2022-12-06T08:42:49.576Z,11.10
2022-12-06T08:45:16.827Z,12.17
2022-12-06T08:47:44.103Z,14.93
2022-12-06T08:50:11.603Z,14.80
2022-12-06T08:52:38.647Z,17.70
2022-12-06T08:55:05.924Z,15.37
2022-12-06T08:57:33.643Z,16.37
2022-12-06T09:00:01.002Z,17.03
2022-12-06T09:02:28.266Z,17.90
2022-12-06T09:04:55.343Z,20.97
2022-12-06T09:07:23.634Z,19.90
2022-12-06T09:09:51.499Z,23.47
2022-12-06T09:12:18.304Z,25.73
2022-12-06T09:14:45.425Z,28.93
2022-12-06T09:17:12.951Z,26.73
2022-12-06T09:19:40.198Z,25.23
2022-12-06T09:22:07.462Z,29.13
2022-12-06T09:24:34.651Z,29.17
2022-12-06T09:27:02.140Z,24.50
2022-12-06T09:29:29.609Z,23.00
2022-12-06T09:31:56.867Z,29.27
2022-12-06T09:34:24.119Z,26.40
2022-12-06T09:36:58.236Z,30.70
2022-12-06T09:39:32.356Z,24.27
2022-12-06T09:42:13.203Z,25.40
2022-12-06T09:45:04.535Z,23.17
2022-12-06T09:47:40.394Z,21.03
2022-12-06T09:50:28.433Z,22.20
2022-12-06T09:53:20.237Z,20.70
2022-12-06T09:56:17.719Z,19.57
2022-12-06T09:59:19.916Z,24.50
2022-12-06T10:02:07.384Z,22.83
2022-12-06T10:04:40.461Z,20.53
2022-12-06T10:07:07.502Z,21.10
2022-12-06T10:09:43.393Z,20.10
2022-12-06T10:12:34.380Z,26.20
2022-12-06T10:15:27.160Z,18.60
2022-12-06T10:18:15.856Z,17.63
2022-12-06T10:21:00.121Z,18.27
2022-12-06T10:23:32.742Z,16.00
2022-12-06T10:26:22.594Z,18.70
2022-12-06T10:28:58.376Z,17.63
2022-12-06T10:31:52.862Z,15.70
2022-12-06T10:34:33.957Z,17.27
2022-12-06T10:37:20.946Z,20.03
2022-12-06T10:39:56.997Z,15.57
2022-12-06T10:42:26.720Z,18.97
2022-12-06T10:44:56.408Z,15.80
2022-12-06T10:47:34.954Z,15.10
2022-12-06T10:50:14.336Z,17.93
2022-12-06T10:52:41.000Z,16.30
2022-12-06T10:55:11.179Z,17.10
2022-12-06T10:58:20.092Z,17.63
2022-12-06T11:01:05.122Z,22.63
2022-12-06T11:03:44.974Z,17.27
2022-12-06T11:06:37.913Z,15.07
2022-12-06T11:09:23.732Z,15.00
2022-12-06T11:11:51.845Z,18.20
2022-12-06T11:14:25.644Z,19.30
2022-12-06T11:17:00.615Z,15.97
2022-12-06T11:19:40.668Z,13.33
2022-12-06T11:22:16.642Z,15.57
2022-12-06T11:24:52.739Z,17.10
2022-12-06T11:27:27.116Z,16.27
2022-12-06T11:29:54.115Z,14.00
2022-12-06T11:32:21.163Z,15.30
2022-12-06T11:34:52.042Z,15.50
2022-12-06T11:37:21.920Z,15.33
2022-12-06T11:39:54.154Z,12.40
2022-12-06T11:42:27.304Z,14.47
2022-12-06T11:44:58.094Z,12.23
2022-12-06T11:47:25.216Z,14.67
2022-12-06T11:49:55.665Z,15.43
2022-12-06T11:52:37.282Z,14.53
2022-12-06T11:55:16.027Z,14.07
2022-12-06T11:57:58.272Z,14.03
2022-12-06T12:00:26.080Z,16.23
2022-12-06T12:02:55.446Z,13.63
2022-12-06T12:05:23.006Z,10.93
2022-12-06T12:08:03.340Z,10.63
2022-12-06T12:10:34.568Z,12.27
2022-12-06T12:13:40.961Z,12.20
2022-12-06T12:16:25.569Z,11.67
2022-12-06T12:19:03.664Z,15.73
2022-12-06T12:21:38.180Z,14.20
2022-12-06T12:24:06.570Z,11.63
2022-12-06T12:26:41.275Z,11.43
2022-12-06T12:29:08.140Z,13.73
2022-12-06T12:31:56.760Z,11.03
2022-12-06T12:34:26.943Z,11.67
2022-12-06T12:37:00.779Z,10.73
2022-12-06T12:39:38.743Z,10.87
2022-12-06T12:42:29.810Z,9.27
2022-12-06T12:45:00.773Z,13.37
2022-12-06T12:47:28.218Z,10.77
2022-12-06T12:50:18.627Z,11.17
2022-12-06T12:52:46.067Z,11.37
2022-12-06T12:55:18.901Z,11.27
2022-12-06T12:57:48.803Z,10.13
2022-12-06T13:00:22.480Z,9.57
2022-12-06T13:02:55.324Z,9.60
2022-12-06T13:05:34.934Z,10.60
2022-12-06T13:08:19.878Z,9.03
2022-12-06T13:10:58.470Z,9.67
2022-12-06T13:13:32.606Z,8.83
2022-12-06T13:16:01.885Z,8.87
2022-12-06T13:18:37.628Z,10.03
2022-12-06T13:21:32.061Z,7.43
2022-12-06T13:24:12.634Z,14.30
2022-12-06T13:26:50.470Z,14.47
2022-12-06T13:29:32.816Z,11.63
2022-12-06T13:32:08.994Z,10.77
2022-12-06T13:34:50.705Z,12.93
2022-12-06T13:37:28.121Z,13.20
2022-12-06T13:39:55.172Z,13.73
2022-12-06T13:42:37.553Z,12.73
2022-12-06T13:45:42.350Z,11.03
2022-12-06T13:48:24.681Z,14.97
2022-12-06T13:50:57.918Z,13.13
2022-12-06T13:53:27.340Z,10.03
2022-12-06T13:56:21.767Z,16.47
2022-12-06T13:58:56.999Z,12.10
2022-12-06T14:01:52.324Z,12.17
2022-12-06T14:09:40.552Z,11.63
2022-12-06T14:12:36.908Z,10.17
2022-12-06T14:15:06.127Z,10.60
2022-12-06T14:20:31.618Z,9.00
2022-12-06T14:22:59.362Z,12.00
2022-12-06T14:25:29.096Z,11.17
2022-12-06T14:28:06.725Z,6.33
2022-12-06T14:30:34.413Z,6.97
2022-12-06T14:33:01.546Z,9.90
2022-12-06T14:35:35.970Z,4.27
2022-12-06T14:38:24.686Z,3.70
2022-12-06T14:41:11.109Z,5.43
2022-12-06T14:43:38.747Z,5.17
2022-12-06T14:46:13.025Z,8.43
2022-12-06T14:48:58.394Z,4.70
2022-12-06T14:51:33.846Z,3.10
2022-12-06T14:54:28.491Z,3.30
2022-12-06T14:56:55.501Z,2.43
2022-12-06T15:00:01.567Z,4.23
2022-12-06T15:02:24.880Z,4.00
2022-12-06T15:04:52.031Z,4.83
2022-12-06T15:07:48.727Z,2.87
2022-12-06T15:10:32.258Z,4.53
2022-12-06T15:13:16.049Z,3.73
2022-12-06T15:15:46.243Z,2.37
2022-12-06T15:18:27.661Z,3.30
2022-12-06T15:20:55.067Z,5.17
2022-12-06T15:23:30.373Z,5.07
2022-12-06T15:25:57.887Z,4.23
2022-12-06T15:28:25.105Z,2.77
2022-12-06T15:30:52.293Z,3.83
2022-12-06T15:33:22.935Z,3.10
2022-12-06T15:35:50.522Z,2.70
2022-12-06T15:38:17.843Z,4.97
2022-12-06T15:40:48.223Z,3.00
2022-12-06T15:43:35.583Z,3.10
2022-12-06T15:46:04.100Z,3.30
2022-12-06T15:48:34.686Z,5.10
2022-12-06T15:51:01.660Z,3.60
2022-12-06T15:53:29.398Z,3.20
2022-12-06T15:55:56.344Z,3.23
2022-12-06T15:58:23.482Z,4.37
2022-12-06T16:00:50.752Z,10.50
2022-12-06T16:03:18.122Z,7.63
2022-12-06T16:05:45.214Z,7.70
2022-12-06T16:08:12.294Z,7.90
2022-12-06T16:11:10.354Z,5.43
2022-12-06T16:13:26.431Z,7.43
2022-12-06T16:15:53.652Z,5.87
2022-12-06T16:18:20.933Z,5.03
2022-12-06T16:20:48.352Z,12.70
2022-12-06T16:24:11.517Z,13.03
2022-12-06T16:26:27.952Z,10.03
2022-12-06T16:28:55.620Z,14.97
2022-12-06T16:31:22.747Z,8.47
2022-12-06T16:33:50.534Z,8.90
2022-12-06T16:36:32.118Z,5.87
2022-12-06T16:39:02.063Z,6.57
2022-12-06T16:41:33.175Z,7.80
2022-12-06T16:44:01.161Z,6.67
2022-12-06T16:46:27.894Z,5.47
2022-12-06T16:49:22.637Z,5.10
2022-12-06T16:51:51.579Z,4.40
2022-12-06T16:54:18.693Z,4.80
2022-12-06T16:56:46.301Z,5.13
2022-12-06T16:59:18.631Z,5.37
2022-12-06T17:01:51.688Z,5.27
2022-12-06T17:04:19.081Z,4.83
2022-12-06T17:06:47.107Z,5.10
2022-12-06T17:09:15.155Z,6.77
2022-12-06T17:12:01.094Z,8.57
2022-12-06T17:14:28.740Z,6.43
2022-12-06T17:17:01.469Z,7.53
2022-12-06T17:19:28.620Z,5.17
2022-12-06T17:21:56.665Z,6.63
2022-12-06T17:24:26.619Z,7.47
2022-12-06T17:26:55.358Z,6.37
2022-12-06T17:29:23.992Z,5.60
2022-12-06T17:31:52.530Z,6.07
2022-12-06T17:34:20.242Z,6.70
2022-12-06T17:36:49.157Z,4.50
2022-12-06T17:39:18.750Z,5.03
2022-12-06T17:42:04.574Z,7.30
2022-12-06T17:44:31.839Z,6.70
2022-12-06T17:46:59.168Z,9.07
2022-12-06T17:49:27.745Z,8.87
2022-12-06T17:52:27.485Z,5.53
2022-12-06T17:55:17.412Z,5.60
2022-12-06T17:57:44.812Z,6.90
2022-12-06T18:00:13.128Z,7.87
2022-12-06T18:02:40.549Z,8.27
2022-12-06T18:05:08.098Z,8.27
2022-12-06T18:07:35.451Z,9.03
2022-12-06T18:10:02.944Z,8.53
2022-12-06T18:12:32.148Z,7.00
2022-12-06T18:15:02.468Z,11.70
2022-12-06T18:17:30.149Z,15.97
2022-12-06T18:19:57.880Z,10.63
2022-12-06T18:22:25.330Z,9.60
2022-12-06T18:24:52.683Z,11.17
2022-12-06T18:27:19.873Z,12.43
2022-12-06T18:29:47.051Z,11.37
2022-12-06T18:32:14.456Z,13.37
2022-12-06T18:34:41.898Z,15.87
2022-12-06T18:37:09.392Z,17.40
2022-12-06T18:39:36.701Z,25.90
2022-12-06T18:42:03.951Z,15.20
2022-12-06T18:44:31.635Z,14.93
2022-12-06T18:46:59.484Z,12.10
2022-12-06T18:49:26.478Z,12.13
2022-12-06T18:51:53.537Z,11.27
2022-12-06T18:54:20.613Z,8.70
2022-12-06T18:56:47.562Z,11.47
2022-12-06T18:59:14.671Z,8.93
2022-12-06T19:01:41.974Z,10.47
2022-12-06T19:04:13.323Z,11.00
2022-12-06T19:06:40.516Z,11.13
2022-12-06T19:09:10.862Z,11.87
2022-12-06T19:11:43.505Z,9.77
2022-12-06T19:14:11.684Z,10.10
2022-12-06T19:16:40.658Z,10.23
2022-12-06T19:19:16.218Z,10.07
2022-12-06T19:21:45.351Z,10.63
2022-12-06T19:24:19.597Z,11.53
2022-12-06T19:26:47.537Z,10.63
2022-12-06T19:29:15.999Z,10.67
2022-12-06T19:31:43.613Z,10.57
2022-12-06T19:34:25.516Z,9.07
2022-12-06T19:36:54.206Z,12.97
2022-12-06T19:39:22.005Z,12.40
2022-12-06T19:42:07.336Z,7.67
2022-12-06T19:44:34.752Z,8.10
2022-12-06T19:47:02.146Z,9.03
2022-12-06T19:49:29.591Z,9.60
2022-12-06T19:51:56.562Z,8.97
2022-12-06T19:54:26.462Z,9.10
2022-12-06T19:56:55.684Z,8.27
2022-12-06T19:59:25.053Z,9.80
2022-12-06T20:01:52.909Z,9.37
2022-12-06T20:04:25.875Z,11.13
2022-12-06T20:06:53.990Z,8.50
2022-12-06T20:09:23.620Z,13.37
2022-12-06T20:12:04.073Z,13.57
2022-12-06T20:14:40.362Z,16.33
2022-12-06T20:17:14.067Z,17.03
2022-12-06T20:19:46.452Z,19.57
2022-12-06T20:22:14.567Z,14.60
2022-12-06T20:24:41.912Z,12.60
2022-12-06T20:27:10.113Z,12.33
2022-12-06T20:29:37.771Z,11.93
2022-12-06T20:32:05.567Z,9.40
2022-12-06T20:34:34.985Z,13.17
2022-12-06T20:37:05.104Z,11.80
2022-12-06T20:39:35.723Z,10.53
2022-12-06T20:42:04.802Z,12.33
2022-12-06T20:44:32.473Z,10.87
2022-12-06T20:47:00.946Z,14.90
2022-12-06T20:49:28.918Z,12.60
2022-12-06T20:51:58.191Z,10.63
2022-12-06T20:54:26.869Z,11.03
2022-12-06T20:56:54.373Z,9.20
2022-12-06T20:59:21.829Z,10.60
2022-12-06T21:01:50.660Z,10.87
2022-12-06T21:04:17.776Z,10.67
2022-12-06T21:06:44.512Z,9.90
2022-12-06T21:09:11.346Z,11.33
2022-12-06T21:11:38.777Z,11.43
2022-12-06T21:14:06.289Z,9.30
2022-12-06T21:16:42.566Z,8.80
2022-12-06T21:19:20.039Z,12.93
2022-12-06T21:21:54.105Z,9.53
2022-12-06T21:24:21.916Z,9.17
2022-12-06T21:26:49.337Z,14.13
2022-12-06T21:29:18.001Z,10.70
2022-12-06T21:31:45.254Z,11.00
2022-12-06T21:34:13.509Z,11.87
2022-12-06T21:36:40.502Z,10.27
2022-12-06T21:39:07.846Z,10.07
2022-12-06T21:41:34.808Z,10.03
2022-12-06T21:44:02.111Z,11.87
2022-12-06T21:46:29.324Z,14.13
2022-12-06T21:48:58.963Z,9.30
2022-12-06T21:51:30.811Z,10.73
2022-12-06T21:53:58.463Z,10.27
2022-12-06T21:56:30.622Z,10.07
2022-12-06T21:59:00.238Z,12.40
2022-12-06T22:01:29.132Z,13.07
2022-12-06T22:03:59.315Z,10.13
2022-12-06T22:06:26.820Z,12.03
2022-12-06T22:09:03.125Z,11.47
2022-12-06T22:11:31.061Z,13.43
2022-12-06T22:14:00.287Z,10.80
2022-12-06T22:16:28.763Z,14.37
2022-12-06T22:18:55.829Z,12.40
2022-12-06T22:21:26.101Z,12.60
2022-12-06T22:23:53.516Z,13.50
2022-12-06T22:26:22.739Z,14.17
2022-12-06T22:28:50.657Z,15.80
2022-12-06T22:31:23.400Z,15.43
2022-12-06T22:33:51.234Z,12.80
2022-12-06T22:36:19.575Z,13.83
2022-12-06T22:38:54.946Z,12.60
2022-12-06T22:41:23.777Z,13.17
2022-12-06T22:43:52.454Z,12.77
2022-12-06T22:46:19.645Z,14.43
2022-12-06T22:48:47.030Z,14.00
2022-12-06T22:51:19.294Z,15.13
2022-12-06T22:53:49.128Z,16.37
2022-12-06T22:56:16.466Z,14.83
2022-12-06T22:58:44.016Z,12.87
2022-12-06T23:01:16.328Z,18.60
2022-12-06T23:03:46.854Z,16.17
2022-12-06T23:06:15.881Z,16.60
2022-12-06T23:08:43.657Z,15.10
2022-12-06T23:11:12.932Z,16.27
2022-12-06T23:13:39.927Z,18.67
2022-12-06T23:16:10.640Z,17.63
2022-12-06T23:18:37.792Z,16.40
2022-12-06T23:21:11.001Z,18.60
2022-12-06T23:23:39.624Z,18.40
2022-12-06T23:26:08.594Z,15.30
2022-12-06T23:28:36.177Z,18.93
2022-12-06T23:31:14.004Z,14.93
2022-12-06T23:33:42.161Z,22.93
2022-12-06T23:36:18.110Z,19.57
2022-12-06T23:38:45.350Z,17.40
2022-12-06T23:41:14.487Z,19.33
2022-12-06T23:43:41.982Z,17.27
2022-12-06T23:46:12.199Z,21.13
2022-12-06T23:48:39.336Z,18.07
2022-12-06T23:51:09.628Z,17.13
2022-12-06T23:53:37.102Z,19.17
2022-12-06T23:56:10.959Z,18.10
2022-12-06T23:58:38.192Z,15.63
